sensor_id;sensor_type;location;lat;lon;timestamp;P1;durP1;ratioP1;P2;durP2;ratioP2
67278;SDS011;54193;53.746;10.058;2022-08-02T00:01:39;8.82;;;3.28;;
67278;SDS011;54193;53.746;10.058;2022-08-02T00:04:25;9.05;;;3.03;;
67278;SDS011;54193;53.746;10.058;2022-08-02T00:07:10;10.68;;;2.90;;
67278;SDS011;54193;53.746;10.058;2022-08-02T00:09:56;9.77;;;2.80;;
67278;SDS011;54193;53.746;10.058;2022-08-02T00:12:42;7.37;;;2.70;;
67278;SDS011;54193;53.746;10.058;2022-08-02T00:15:27;10.15;;;2.60;;
67278;SDS011;54193;53.746;10.058;2022-08-02T00:18:13;9.57;;;2.90;;
67278;SDS011;54193;53.746;10.058;2022-08-02T00:20:59;10.02;;;3.15;;
67278;SDS011;54193;53.746;10.058;2022-08-02T00:23:44;12.13;;;2.40;;
67278;SDS011;54193;53.746;10.058;2022-08-02T00:26:30;9.37;;;2.40;;
67278;SDS011;54193;53.746;10.058;2022-08-02T00:29:16;7.15;;;2.47;;
67278;SDS011;54193;53.746;10.058;2022-08-02T00:32:01;7.18;;;2.50;;
67278;SDS011;54193;53.746;10.058;2022-08-02T00:34:47;8.57;;;2.70;;
67278;SDS011;54193;53.746;10.058;2022-08-02T00:37:36;7.45;;;2.92;;
67278;SDS011;54193;53.746;10.058;2022-08-02T00:40:23;9.30;;;2.83;;
67278;SDS011;54193;53.746;10.058;2022-08-02T00:43:09;8.35;;;2.67;;
67278;SDS011;54193;53.746;10.058;2022-08-02T00:45:55;9.90;;;2.95;;
67278;SDS011;54193;53.746;10.058;2022-08-02T00:48:42;9.68;;;3.10;;
67278;SDS011;54193;53.746;10.058;2022-08-02T00:51:28;10.45;;;3.30;;
67278;SDS011;54193;53.746;10.058;2022-08-02T00:54:13;5.80;;;2.83;;
67278;SDS011;54193;53.746;10.058;2022-08-02T00:56:59;9.90;;;2.85;;
67278;SDS011;54193;53.746;10.058;2022-08-02T00:59:45;6.80;;;2.83;;
67278;SDS011;54193;53.746;10.058;2022-08-02T01:02:30;9.20;;;3.05;;
67278;SDS011;54193;53.746;10.058;2022-08-02T01:05:16;11.88;;;3.17;;
67278;SDS011;54193;53.746;10.058;2022-08-02T01:08:02;8.17;;;2.50;;
67278;SDS011;54193;53.746;10.058;2022-08-02T01:10:48;8.82;;;2.67;;
67278;SDS011;54193;53.746;10.058;2022-08-02T01:13:34;7.45;;;2.65;;
67278;SDS011;54193;53.746;10.058;2022-08-02T01:16:20;7.93;;;2.90;;
67278;SDS011;54193;53.746;10.058;2022-08-02T01:22:37;9.20;;;2.80;;
67278;SDS011;54193;53.746;10.058;2022-08-02T01:32:14;9.00;;;2.83;;
67278;SDS011;54193;53.746;10.058;2022-08-02T01:35:06;9.30;;;2.90;;
67278;SDS011;54193;53.746;10.058;2022-08-02T01:38:02;8.60;;;2.90;;
67278;SDS011;54193;53.746;10.058;2022-08-02T01:40:51;9.13;;;3.00;;
67278;SDS011;54193;53.746;10.058;2022-08-02T01:43:39;7.70;;;2.80;;
67278;SDS011;54193;53.746;10.058;2022-08-02T01:46:28;6.95;;;2.60;;
67278;SDS011;54193;53.746;10.058;2022-08-02T01:49:17;5.85;;;2.67;;
67278;SDS011;54193;53.746;10.058;2022-08-02T01:52:06;8.87;;;3.13;;
67278;SDS011;54193;53.746;10.058;2022-08-02T01:55:14;10.25;;;3.00;;
67278;SDS011;54193;53.746;10.058;2022-08-02T01:58:06;10.82;;;3.20;;
67278;SDS011;54193;53.746;10.058;2022-08-02T02:00:54;8.88;;;3.10;;
67278;SDS011;54193;53.746;10.058;2022-08-02T02:03:41;8.57;;;2.78;;
67278;SDS011;54193;53.746;10.058;2022-08-02T02:06:29;7.70;;;2.67;;
67278;SDS011;54193;53.746;10.058;2022-08-02T02:09:17;9.20;;;3.55;;
67278;SDS011;54193;53.746;10.058;2022-08-02T02:12:04;10.65;;;3.25;;
67278;SDS011;54193;53.746;10.058;2022-08-02T02:14:51;9.90;;;3.30;;
67278;SDS011;54193;53.746;10.058;2022-08-02T02:17:41;7.55;;;2.75;;
67278;SDS011;54193;53.746;10.058;2022-08-02T02:20:28;8.10;;;3.10;;
67278;SDS011;54193;53.746;10.058;2022-08-02T02:23:14;9.55;;;3.30;;
67278;SDS011;54193;53.746;10.058;2022-08-02T02:26:02;8.20;;;2.83;;
67278;SDS011;54193;53.746;10.058;2022-08-02T02:28:49;9.02;;;3.00;;
67278;SDS011;54193;53.746;10.058;2022-08-02T02:31:38;7.60;;;2.80;;
67278;SDS011;54193;53.746;10.058;2022-08-02T02:34:34;9.13;;;3.13;;
67278;SDS011;54193;53.746;10.058;2022-08-02T02:37:22;7.38;;;2.60;;
67278;SDS011;54193;53.746;10.058;2022-08-02T02:40:10;8.55;;;3.10;;
67278;SDS011;54193;53.746;10.058;2022-08-02T02:42:58;10.93;;;3.05;;
67278;SDS011;54193;53.746;10.058;2022-08-02T02:45:46;7.43;;;3.10;;
67278;SDS011;54193;53.746;10.058;2022-08-02T02:48:33;10.83;;;3.10;;
67278;SDS011;54193;53.746;10.058;2022-08-02T02:51:21;7.97;;;3.00;;
67278;SDS011;54193;53.746;10.058;2022-08-02T02:54:08;8.43;;;2.90;;
67278;SDS011;54193;53.746;10.058;2022-08-02T02:56:57;8.50;;;3.03;;
67278;SDS011;54193;53.746;10.058;2022-08-02T02:59:43;9.63;;;3.05;;
67278;SDS011;54193;53.746;10.058;2022-08-02T03:02:29;7.27;;;2.57;;
67278;SDS011;54193;53.746;10.058;2022-08-02T03:05:15;9.18;;;3.10;;
67278;SDS011;54193;53.746;10.058;2022-08-02T03:08:02;9.48;;;2.90;;
67278;SDS011;54193;53.746;10.058;2022-08-02T03:10:48;6.72;;;2.55;;
67278;SDS011;54193;53.746;10.058;2022-08-02T03:13:34;9.70;;;3.10;;
67278;SDS011;54193;53.746;10.058;2022-08-02T03:16:21;11.10;;;3.30;;
67278;SDS011;54193;53.746;10.058;2022-08-02T03:19:06;7.80;;;2.80;;
67278;SDS011;54193;53.746;10.058;2022-08-02T03:21:52;11.50;;;3.70;;
67278;SDS011;54193;53.746;10.058;2022-08-02T03:24:38;9.52;;;3.38;;
67278;SDS011;54193;53.746;10.058;2022-08-02T03:27:23;9.73;;;3.70;;
67278;SDS011;54193;53.746;10.058;2022-08-02T03:30:10;10.53;;;3.50;;
67278;SDS011;54193;53.746;10.058;2022-08-02T03:32:56;11.82;;;3.70;;
67278;SDS011;54193;53.746;10.058;2022-08-02T03:35:42;13.90;;;3.90;;
67278;SDS011;54193;53.746;10.058;2022-08-02T03:38:29;9.52;;;3.67;;
67278;SDS011;54193;53.746;10.058;2022-08-02T03:41:19;9.00;;;3.45;;
67278;SDS011;54193;53.746;10.058;2022-08-02T03:44:06;10.67;;;3.10;;
67278;SDS011;54193;53.746;10.058;2022-08-02T03:46:52;11.77;;;3.60;;
67278;SDS011;54193;53.746;10.058;2022-08-02T03:49:40;9.25;;;3.40;;
67278;SDS011;54193;53.746;10.058;2022-08-02T03:52:27;9.23;;;3.20;;
67278;SDS011;54193;53.746;10.058;2022-08-02T03:55:16;10.65;;;3.63;;
67278;SDS011;54193;53.746;10.058;2022-08-02T03:58:02;8.13;;;3.70;;
67278;SDS011;54193;53.746;10.058;2022-08-02T04:00:48;10.00;;;3.58;;
67278;SDS011;54193;53.746;10.058;2022-08-02T04:03:34;9.40;;;3.28;;
67278;SDS011;54193;53.746;10.058;2022-08-02T04:06:21;8.60;;;3.13;;
67278;SDS011;54193;53.746;10.058;2022-08-02T04:09:06;10.05;;;3.60;;
67278;SDS011;54193;53.746;10.058;2022-08-02T04:11:53;9.97;;;3.40;;
67278;SDS011;54193;53.746;10.058;2022-08-02T04:14:38;9.52;;;3.25;;
67278;SDS011;54193;53.746;10.058;2022-08-02T04:17:24;9.43;;;3.08;;
67278;SDS011;54193;53.746;10.058;2022-08-02T04:20:17;10.35;;;2.90;;
67278;SDS011;54193;53.746;10.058;2022-08-02T04:23:06;10.88;;;3.17;;
67278;SDS011;54193;53.746;10.058;2022-08-02T04:25:54;7.63;;;3.07;;
67278;SDS011;54193;53.746;10.058;2022-08-02T04:28:40;9.75;;;3.00;;
67278;SDS011;54193;53.746;10.058;2022-08-02T04:31:27;7.95;;;3.30;;
67278;SDS011;54193;53.746;10.058;2022-08-02T04:34:13;8.60;;;3.00;;
67278;SDS011;54193;53.746;10.058;2022-08-02T04:36:59;8.38;;;2.95;;
67278;SDS011;54193;53.746;10.058;2022-08-02T04:39:45;8.83;;;3.30;;
67278;SDS011;54193;53.746;10.058;2022-08-02T04:42:30;8.05;;;3.20;;
67278;SDS011;54193;53.746;10.058;2022-08-02T04:45:16;8.05;;;3.10;;
67278;SDS011;54193;53.746;10.058;2022-08-02T04:48:02;8.90;;;3.55;;
67278;SDS011;54193;53.746;10.058;2022-08-02T04:50:48;9.80;;;3.78;;
67278;SDS011;54193;53.746;10.058;2022-08-02T04:53:35;8.30;;;3.10;;
67278;SDS011;54193;53.746;10.058;2022-08-02T04:56:21;9.02;;;3.35;;
67278;SDS011;54193;53.746;10.058;2022-08-02T04:59:07;10.30;;;3.42;;
67278;SDS011;54193;53.746;10.058;2022-08-02T05:01:54;14.32;;;3.90;;
67278;SDS011;54193;53.746;10.058;2022-08-02T05:04:39;10.95;;;3.78;;
67278;SDS011;54193;53.746;10.058;2022-08-02T05:07:25;10.77;;;3.37;;
67278;SDS011;54193;53.746;10.058;2022-08-02T05:10:11;10.07;;;3.40;;
67278;SDS011;54193;53.746;10.058;2022-08-02T05:12:57;8.45;;;3.33;;
67278;SDS011;54193;53.746;10.058;2022-08-02T05:15:42;10.80;;;3.72;;
67278;SDS011;54193;53.746;10.058;2022-08-02T05:18:28;11.05;;;3.90;;
67278;SDS011;54193;53.746;10.058;2022-08-02T05:21:15;9.80;;;3.53;;
67278;SDS011;54193;53.746;10.058;2022-08-02T05:24:01;8.90;;;3.70;;
67278;SDS011;54193;53.746;10.058;2022-08-02T05:26:46;14.75;;;4.20;;
67278;SDS011;54193;53.746;10.058;2022-08-02T05:29:32;13.20;;;4.60;;
67278;SDS011;54193;53.746;10.058;2022-08-02T05:32:17;13.23;;;4.30;;
67278;SDS011;54193;53.746;10.058;2022-08-02T05:35:03;12.97;;;4.67;;
67278;SDS011;54193;53.746;10.058;2022-08-02T05:37:50;13.90;;;4.50;;
67278;SDS011;54193;53.746;10.058;2022-08-02T05:40:36;15.45;;;4.50;;
67278;SDS011;54193;53.746;10.058;2022-08-02T05:43:22;15.38;;;4.55;;
67278;SDS011;54193;53.746;10.058;2022-08-02T05:46:08;13.70;;;3.97;;
67278;SDS011;54193;53.746;10.058;2022-08-02T05:48:53;11.37;;;4.10;;
67278;SDS011;54193;53.746;10.058;2022-08-02T05:51:44;11.55;;;3.95;;
67278;SDS011;54193;53.746;10.058;2022-08-02T05:54:47;13.95;;;4.25;;
67278;SDS011;54193;53.746;10.058;2022-08-02T06:00:48;10.23;;;3.28;;
67278;SDS011;54193;53.746;10.058;2022-08-02T06:03:38;11.17;;;3.30;;
67278;SDS011;54193;53.746;10.058;2022-08-02T06:06:32;12.32;;;3.13;;
67278;SDS011;54193;53.746;10.058;2022-08-02T06:09:20;11.55;;;2.90;;
67278;SDS011;54193;53.746;10.058;2022-08-02T06:12:08;8.90;;;3.08;;
67278;SDS011;54193;53.746;10.058;2022-08-02T06:15:02;13.82;;;3.47;;
67278;SDS011;54193;53.746;10.058;2022-08-02T06:17:49;8.90;;;3.03;;
67278;SDS011;54193;53.746;10.058;2022-08-02T06:20:37;9.68;;;3.00;;
67278;SDS011;54193;53.746;10.058;2022-08-02T06:23:22;6.65;;;2.72;;
67278;SDS011;54193;53.746;10.058;2022-08-02T06:26:10;8.95;;;2.70;;
67278;SDS011;54193;53.746;10.058;2022-08-02T06:28:57;8.80;;;2.97;;
67278;SDS011;54193;53.746;10.058;2022-08-02T06:31:43;7.07;;;2.80;;
67278;SDS011;54193;53.746;10.058;2022-08-02T06:34:29;8.32;;;3.10;;
67278;SDS011;54193;53.746;10.058;2022-08-02T06:40:03;8.25;;;2.85;;
67278;SDS011;54193;53.746;10.058;2022-08-02T06:43:05;6.50;;;2.65;;
67278;SDS011;54193;53.746;10.058;2022-08-02T06:45:57;10.10;;;2.80;;
67278;SDS011;54193;53.746;10.058;2022-08-02T06:48:43;7.70;;;2.85;;
67278;SDS011;54193;53.746;10.058;2022-08-02T06:51:29;6.03;;;2.70;;
67278;SDS011;54193;53.746;10.058;2022-08-02T06:54:14;7.50;;;2.90;;
67278;SDS011;54193;53.746;10.058;2022-08-02T06:57:05;7.60;;;3.05;;
67278;SDS011;54193;53.746;10.058;2022-08-02T06:59:53;9.77;;;3.30;;
67278;SDS011;54193;53.746;10.058;2022-08-02T07:02:39;9.02;;;3.13;;
67278;SDS011;54193;53.746;10.058;2022-08-02T07:05:25;9.40;;;2.90;;
67278;SDS011;54193;53.746;10.058;2022-08-02T07:08:11;8.80;;;2.97;;
67278;SDS011;54193;53.746;10.058;2022-08-02T07:11:00;9.27;;;3.03;;
67278;SDS011;54193;53.746;10.058;2022-08-02T07:13:46;9.60;;;3.00;;
67278;SDS011;54193;53.746;10.058;2022-08-02T07:16:32;8.15;;;2.97;;
67278;SDS011;54193;53.746;10.058;2022-08-02T07:19:17;8.50;;;3.13;;
67278;SDS011;54193;53.746;10.058;2022-08-02T07:22:03;8.50;;;2.92;;
67278;SDS011;54193;53.746;10.058;2022-08-02T07:24:50;7.80;;;3.33;;
67278;SDS011;54193;53.746;10.058;2022-08-02T07:27:38;7.67;;;2.83;;
67278;SDS011;54193;53.746;10.058;2022-08-02T07:30:24;7.20;;;2.55;;
67278;SDS011;54193;53.746;10.058;2022-08-02T07:33:10;12.02;;;3.35;;
67278;SDS011;54193;53.746;10.058;2022-08-02T07:35:55;7.10;;;2.95;;
67278;SDS011;54193;53.746;10.058;2022-08-02T07:38:42;7.47;;;3.00;;
67278;SDS011;54193;53.746;10.058;2022-08-02T07:41:28;5.97;;;2.70;;
67278;SDS011;54193;53.746;10.058;2022-08-02T07:44:14;7.75;;;2.78;;
67278;SDS011;54193;53.746;10.058;2022-08-02T07:47:03;8.57;;;2.90;;
67278;SDS011;54193;53.746;10.058;2022-08-02T07:49:49;9.40;;;2.65;;
67278;SDS011;54193;53.746;10.058;2022-08-02T07:52:34;8.30;;;3.00;;
67278;SDS011;54193;53.746;10.058;2022-08-02T07:55:20;8.57;;;2.43;;
67278;SDS011;54193;53.746;10.058;2022-08-02T07:58:06;8.43;;;2.58;;
67278;SDS011;54193;53.746;10.058;2022-08-02T08:00:53;5.65;;;2.50;;
67278;SDS011;54193;53.746;10.058;2022-08-02T08:03:40;8.70;;;2.70;;
67278;SDS011;54193;53.746;10.058;2022-08-02T08:06:27;7.82;;;2.40;;
67278;SDS011;54193;53.746;10.058;2022-08-02T08:09:12;10.20;;;2.60;;
67278;SDS011;54193;53.746;10.058;2022-08-02T08:11:58;7.20;;;2.20;;
67278;SDS011;54193;53.746;10.058;2022-08-02T08:14:44;6.53;;;2.30;;
67278;SDS011;54193;53.746;10.058;2022-08-02T08:17:29;7.38;;;2.30;;
67278;SDS011;54193;53.746;10.058;2022-08-02T08:20:15;4.88;;;2.13;;
67278;SDS011;54193;53.746;10.058;2022-08-02T08:23:01;7.10;;;2.27;;
67278;SDS011;54193;53.746;10.058;2022-08-02T08:25:47;7.40;;;2.00;;
67278;SDS011;54193;53.746;10.058;2022-08-02T08:28:33;6.45;;;2.15;;
67278;SDS011;54193;53.746;10.058;2022-08-02T08:31:19;5.47;;;2.00;;
67278;SDS011;54193;53.746;10.058;2022-08-02T08:34:05;5.07;;;2.20;;
67278;SDS011;54193;53.746;10.058;2022-08-02T08:36:51;8.50;;;2.50;;
67278;SDS011;54193;53.746;10.058;2022-08-02T08:39:36;6.35;;;2.42;;
67278;SDS011;54193;53.746;10.058;2022-08-02T08:42:22;4.07;;;2.03;;
67278;SDS011;54193;53.746;10.058;2022-08-02T08:45:08;5.97;;;2.20;;
67278;SDS011;54193;53.746;10.058;2022-08-02T08:48:05;6.20;;;2.15;;
67278;SDS011;54193;53.746;10.058;2022-08-02T08:53:47;5.43;;;2.00;;
67278;SDS011;54193;53.746;10.058;2022-08-02T08:56:34;8.10;;;2.20;;
67278;SDS011;54193;53.746;10.058;2022-08-02T08:59:20;5.47;;;2.00;;
67278;SDS011;54193;53.746;10.058;2022-08-02T09:02:06;5.60;;;1.92;;
67278;SDS011;54193;53.746;10.058;2022-08-02T09:04:55;7.00;;;1.97;;
67278;SDS011;54193;53.746;10.058;2022-08-02T09:07:41;7.15;;;1.95;;
67278;SDS011;54193;53.746;10.058;2022-08-02T09:10:36;6.38;;;1.80;;
67278;SDS011;54193;53.746;10.058;2022-08-02T09:13:25;6.88;;;2.05;;
67278;SDS011;54193;53.746;10.058;2022-08-02T09:16:25;6.80;;;2.00;;
67278;SDS011;54193;53.746;10.058;2022-08-02T09:19:23;5.63;;;1.80;;
67278;SDS011;54193;53.746;10.058;2022-08-02T09:22:11;6.75;;;2.22;;
67278;SDS011;54193;53.746;10.058;2022-08-02T09:24:57;7.30;;;2.03;;
67278;SDS011;54193;53.746;10.058;2022-08-02T09:27:43;3.88;;;1.63;;
67278;SDS011;54193;53.746;10.058;2022-08-02T09:30:41;5.35;;;1.92;;
67278;SDS011;54193;53.746;10.058;2022-08-02T09:33:27;5.67;;;1.73;;
67278;SDS011;54193;53.746;10.058;2022-08-02T09:36:14;4.00;;;1.67;;
67278;SDS011;54193;53.746;10.058;2022-08-02T09:39:03;5.70;;;1.95;;
67278;SDS011;54193;53.746;10.058;2022-08-02T09:41:50;5.90;;;2.00;;
67278;SDS011;54193;53.746;10.058;2022-08-02T09:44:35;6.55;;;1.83;;
67278;SDS011;54193;53.746;10.058;2022-08-02T09:47:22;4.23;;;1.60;;
67278;SDS011;54193;53.746;10.058;2022-08-02T09:50:09;5.43;;;2.00;;
67278;SDS011;54193;53.746;10.058;2022-08-02T09:52:55;4.00;;;1.70;;
67278;SDS011;54193;53.746;10.058;2022-08-02T09:55:41;6.22;;;1.80;;
67278;SDS011;54193;53.746;10.058;2022-08-02T09:58:27;5.13;;;1.95;;
67278;SDS011;54193;53.746;10.058;2022-08-02T10:01:13;6.67;;;1.90;;
67278;SDS011;54193;53.746;10.058;2022-08-02T10:04:02;6.32;;;2.50;;
67278;SDS011;54193;53.746;10.058;2022-08-02T10:06:55;7.18;;;2.40;;
67278;SDS011;54193;53.746;10.058;2022-08-02T10:09:40;6.38;;;2.17;;
67278;SDS011;54193;53.746;10.058;2022-08-02T10:12:27;5.70;;;1.90;;
67278;SDS011;54193;53.746;10.058;2022-08-02T10:15:13;5.53;;;1.90;;
67278;SDS011;54193;53.746;10.058;2022-08-02T10:18:00;7.15;;;2.10;;
67278;SDS011;54193;53.746;10.058;2022-08-02T10:20:46;6.15;;;2.00;;
67278;SDS011;54193;53.746;10.058;2022-08-02T10:23:35;5.78;;;1.90;;
67278;SDS011;54193;53.746;10.058;2022-08-02T10:26:23;3.88;;;2.13;;
67278;SDS011;54193;53.746;10.058;2022-08-02T10:29:11;6.63;;;1.80;;
67278;SDS011;54193;53.746;10.058;2022-08-02T10:37:47;4.50;;;1.80;;
67278;SDS011;54193;53.746;10.058;2022-08-02T10:40:46;5.28;;;1.63;;
67278;SDS011;54193;53.746;10.058;2022-08-02T10:49:12;5.07;;;1.45;;
67278;SDS011;54193;53.746;10.058;2022-08-02T10:54:53;6.00;;;1.50;;
67278;SDS011;54193;53.746;10.058;2022-08-02T10:57:43;3.50;;;1.30;;
67278;SDS011;54193;53.746;10.058;2022-08-02T11:00:29;4.80;;;1.42;;
67278;SDS011;54193;53.746;10.058;2022-08-02T11:03:31;5.85;;;1.50;;
67278;SDS011;54193;53.746;10.058;2022-08-02T11:06:19;4.25;;;1.40;;
67278;SDS011;54193;53.746;10.058;2022-08-02T11:09:24;4.90;;;1.70;;
67278;SDS011;54193;53.746;10.058;2022-08-02T11:12:15;3.73;;;1.47;;
67278;SDS011;54193;53.746;10.058;2022-08-02T11:15:03;5.85;;;2.00;;
67278;SDS011;54193;53.746;10.058;2022-08-02T11:17:53;3.72;;;1.55;;
67278;SDS011;54193;53.746;10.058;2022-08-02T11:20:41;3.90;;;1.45;;
67278;SDS011;54193;53.746;10.058;2022-08-02T11:23:36;3.45;;;1.58;;
67278;SDS011;54193;53.746;10.058;2022-08-02T11:29:18;5.47;;;1.80;;
67278;SDS011;54193;53.746;10.058;2022-08-02T11:32:14;3.72;;;1.80;;
67278;SDS011;54193;53.746;10.058;2022-08-02T11:35:02;5.30;;;1.80;;
67278;SDS011;54193;53.746;10.058;2022-08-02T11:37:48;5.18;;;1.80;;
67278;SDS011;54193;53.746;10.058;2022-08-02T11:40:38;6.03;;;1.90;;
67278;SDS011;54193;53.746;10.058;2022-08-02T11:43:24;4.78;;;1.70;;
67278;SDS011;54193;53.746;10.058;2022-08-02T11:46:15;5.22;;;1.60;;
67278;SDS011;54193;53.746;10.058;2022-08-02T11:49:11;4.30;;;1.70;;
67278;SDS011;54193;53.746;10.058;2022-08-02T11:54:49;4.83;;;1.90;;
67278;SDS011;54193;53.746;10.058;2022-08-02T11:57:35;4.07;;;1.80;;
67278;SDS011;54193;53.746;10.058;2022-08-02T12:00:21;5.28;;;1.90;;
67278;SDS011;54193;53.746;10.058;2022-08-02T12:03:07;4.63;;;2.00;;
67278;SDS011;54193;53.746;10.058;2022-08-02T12:05:52;4.65;;;1.70;;
67278;SDS011;54193;53.746;10.058;2022-08-02T12:08:38;4.87;;;1.57;;
67278;SDS011;54193;53.746;10.058;2022-08-02T12:11:24;3.97;;;1.60;;
67278;SDS011;54193;53.746;10.058;2022-08-02T12:14:09;4.57;;;2.00;;
67278;SDS011;54193;53.746;10.058;2022-08-02T12:16:55;3.85;;;1.40;;
67278;SDS011;54193;53.746;10.058;2022-08-02T12:20:00;3.75;;;1.40;;
67278;SDS011;54193;53.746;10.058;2022-08-02T12:22:45;3.63;;;1.80;;
67278;SDS011;54193;53.746;10.058;2022-08-02T12:25:31;4.13;;;1.67;;
67278;SDS011;54193;53.746;10.058;2022-08-02T12:28:18;4.13;;;1.58;;
67278;SDS011;54193;53.746;10.058;2022-08-02T12:31:07;4.53;;;1.85;;
67278;SDS011;54193;53.746;10.058;2022-08-02T12:33:57;5.07;;;1.70;;
67278;SDS011;54193;53.746;10.058;2022-08-02T12:36:44;4.57;;;1.90;;
67278;SDS011;54193;53.746;10.058;2022-08-02T12:39:54;4.70;;;1.90;;
67278;SDS011;54193;53.746;10.058;2022-08-02T12:42:47;5.75;;;2.15;;
67278;SDS011;54193;53.746;10.058;2022-08-02T12:45:51;4.22;;;1.75;;
67278;SDS011;54193;53.746;10.058;2022-08-02T12:48:41;5.70;;;2.40;;
67278;SDS011;54193;53.746;10.058;2022-08-02T12:51:28;4.93;;;1.90;;
67278;SDS011;54193;53.746;10.058;2022-08-02T12:54:22;5.78;;;2.15;;
67278;SDS011;54193;53.746;10.058;2022-08-02T12:57:12;6.53;;;2.10;;
67278;SDS011;54193;53.746;10.058;2022-08-02T12:59:59;3.67;;;1.70;;
67278;SDS011;54193;53.746;10.058;2022-08-02T13:02:46;4.85;;;1.63;;
67278;SDS011;54193;53.746;10.058;2022-08-02T13:05:33;4.93;;;1.70;;
67278;SDS011;54193;53.746;10.058;2022-08-02T13:08:20;3.30;;;1.70;;
67278;SDS011;54193;53.746;10.058;2022-08-02T13:11:06;4.35;;;1.98;;
67278;SDS011;54193;53.746;10.058;2022-08-02T13:13:53;4.82;;;2.10;;
67278;SDS011;54193;53.746;10.058;2022-08-02T13:16:39;6.75;;;2.08;;
67278;SDS011;54193;53.746;10.058;2022-08-02T13:19:27;5.13;;;1.73;;
67278;SDS011;54193;53.746;10.058;2022-08-02T13:22:12;5.80;;;1.92;;
67278;SDS011;54193;53.746;10.058;2022-08-02T13:24:58;4.03;;;2.08;;
67278;SDS011;54193;53.746;10.058;2022-08-02T13:27:44;4.50;;;2.10;;
67278;SDS011;54193;53.746;10.058;2022-08-02T13:30:29;5.75;;;2.10;;
67278;SDS011;54193;53.746;10.058;2022-08-02T13:33:15;4.07;;;1.90;;
67278;SDS011;54193;53.746;10.058;2022-08-02T13:36:01;3.60;;;1.70;;
67278;SDS011;54193;53.746;10.058;2022-08-02T13:38:47;4.28;;;1.85;;
67278;SDS011;54193;53.746;10.058;2022-08-02T13:41:33;4.60;;;1.88;;
67278;SDS011;54193;53.746;10.058;2022-08-02T13:44:18;4.07;;;2.00;;
67278;SDS011;54193;53.746;10.058;2022-08-02T13:47:04;4.40;;;1.87;;
67278;SDS011;54193;53.746;10.058;2022-08-02T13:49:56;3.75;;;1.90;;
67278;SDS011;54193;53.746;10.058;2022-08-02T13:52:42;4.28;;;1.80;;
67278;SDS011;54193;53.746;10.058;2022-08-02T13:55:28;3.65;;;1.80;;
67278;SDS011;54193;53.746;10.058;2022-08-02T13:58:13;4.88;;;1.90;;
67278;SDS011;54193;53.746;10.058;2022-08-02T14:00:59;4.73;;;2.03;;
67278;SDS011;54193;53.746;10.058;2022-08-02T14:03:45;4.47;;;1.95;;
67278;SDS011;54193;53.746;10.058;2022-08-02T14:06:31;4.60;;;2.15;;
67278;SDS011;54193;53.746;10.058;2022-08-02T14:09:17;3.80;;;1.90;;
67278;SDS011;54193;53.746;10.058;2022-08-02T14:12:04;5.95;;;2.25;;
67278;SDS011;54193;53.746;10.058;2022-08-02T14:14:50;4.00;;;2.03;;
67278;SDS011;54193;53.746;10.058;2022-08-02T14:17:35;4.32;;;1.85;;
67278;SDS011;54193;53.746;10.058;2022-08-02T14:20:22;4.72;;;1.92;;
67278;SDS011;54193;53.746;10.058;2022-08-02T14:23:08;5.05;;;2.00;;
67278;SDS011;54193;53.746;10.058;2022-08-02T14:25:54;5.07;;;2.00;;
67278;SDS011;54193;53.746;10.058;2022-08-02T14:28:40;5.07;;;2.00;;
67278;SDS011;54193;53.746;10.058;2022-08-02T14:31:25;4.55;;;1.98;;
67278;SDS011;54193;53.746;10.058;2022-08-02T14:34:11;4.15;;;2.08;;
67278;SDS011;54193;53.746;10.058;2022-08-02T14:36:57;4.60;;;2.10;;
67278;SDS011;54193;53.746;10.058;2022-08-02T14:39:43;4.68;;;2.00;;
67278;SDS011;54193;53.746;10.058;2022-08-02T14:42:29;4.67;;;2.23;;
67278;SDS011;54193;53.746;10.058;2022-08-02T14:45:15;3.65;;;2.20;;
67278;SDS011;54193;53.746;10.058;2022-08-02T14:48:02;4.68;;;2.28;;
67278;SDS011;54193;53.746;10.058;2022-08-02T14:50:48;4.05;;;2.40;;
67278;SDS011;54193;53.746;10.058;2022-08-02T14:53:34;4.90;;;2.40;;
67278;SDS011;54193;53.746;10.058;2022-08-02T14:56:21;4.60;;;2.23;;
67278;SDS011;54193;53.746;10.058;2022-08-02T14:59:06;5.45;;;2.40;;
67278;SDS011;54193;53.746;10.058;2022-08-02T15:01:53;4.55;;;2.40;;
67278;SDS011;54193;53.746;10.058;2022-08-02T15:04:39;5.97;;;2.17;;
67278;SDS011;54193;53.746;10.058;2022-08-02T15:07:25;4.47;;;2.35;;
67278;SDS011;54193;53.746;10.058;2022-08-02T15:10:10;4.90;;;2.20;;
67278;SDS011;54193;53.746;10.058;2022-08-02T15:12:56;5.22;;;2.50;;
67278;SDS011;54193;53.746;10.058;2022-08-02T15:15:41;4.63;;;2.30;;
67278;SDS011;54193;53.746;10.058;2022-08-02T15:18:27;4.38;;;2.40;;
67278;SDS011;54193;53.746;10.058;2022-08-02T15:21:13;4.85;;;2.40;;
67278;SDS011;54193;53.746;10.058;2022-08-02T15:23:59;4.53;;;2.50;;
67278;SDS011;54193;53.746;10.058;2022-08-02T15:26:44;5.38;;;2.40;;
67278;SDS011;54193;53.746;10.058;2022-08-02T15:29:30;6.15;;;2.60;;
67278;SDS011;54193;53.746;10.058;2022-08-02T15:32:16;4.72;;;2.45;;
67278;SDS011;54193;53.746;10.058;2022-08-02T15:35:05;5.32;;;2.58;;
67278;SDS011;54193;53.746;10.058;2022-08-02T15:37:51;4.20;;;2.73;;
67278;SDS011;54193;53.746;10.058;2022-08-02T15:40:37;4.97;;;2.95;;
67278;SDS011;54193;53.746;10.058;2022-08-02T15:43:23;5.07;;;2.70;;
67278;SDS011;54193;53.746;10.058;2022-08-02T15:46:09;4.53;;;2.50;;
67278;SDS011;54193;53.746;10.058;2022-08-02T15:48:55;4.82;;;2.70;;
67278;SDS011;54193;53.746;10.058;2022-08-02T15:51:40;5.57;;;2.60;;
67278;SDS011;54193;53.746;10.058;2022-08-02T15:54:26;4.82;;;2.67;;
67278;SDS011;54193;53.746;10.058;2022-08-02T15:57:12;4.97;;;2.78;;
67278;SDS011;54193;53.746;10.058;2022-08-02T15:59:57;5.80;;;2.78;;
67278;SDS011;54193;53.746;10.058;2022-08-02T16:02:43;5.28;;;2.65;;
67278;SDS011;54193;53.746;10.058;2022-08-02T16:05:28;6.10;;;3.00;;
67278;SDS011;54193;53.746;10.058;2022-08-02T16:08:14;5.55;;;2.80;;
67278;SDS011;54193;53.746;10.058;2022-08-02T16:11:00;5.30;;;3.00;;
67278;SDS011;54193;53.746;10.058;2022-08-02T16:13:46;4.65;;;3.10;;
67278;SDS011;54193;53.746;10.058;2022-08-02T16:16:34;4.78;;;2.50;;
67278;SDS011;54193;53.746;10.058;2022-08-02T16:19:21;5.83;;;3.00;;
67278;SDS011;54193;53.746;10.058;2022-08-02T16:22:08;5.40;;;2.90;;
67278;SDS011;54193;53.746;10.058;2022-08-02T16:24:54;5.15;;;3.03;;
67278;SDS011;54193;53.746;10.058;2022-08-02T16:27:39;5.78;;;3.05;;
67278;SDS011;54193;53.746;10.058;2022-08-02T16:30:26;6.18;;;3.17;;
67278;SDS011;54193;53.746;10.058;2022-08-02T16:33:12;6.37;;;3.07;;
67278;SDS011;54193;53.746;10.058;2022-08-02T16:35:58;5.80;;;3.70;;
67278;SDS011;54193;53.746;10.058;2022-08-02T16:38:44;6.43;;;4.30;;
67278;SDS011;54193;53.746;10.058;2022-08-02T16:41:29;8.43;;;4.78;;
67278;SDS011;54193;53.746;10.058;2022-08-02T16:44:15;5.38;;;3.45;;
67278;SDS011;54193;53.746;10.058;2022-08-02T16:47:01;5.70;;;3.50;;
67278;SDS011;54193;53.746;10.058;2022-08-02T16:49:46;5.82;;;2.92;;
67278;SDS011;54193;53.746;10.058;2022-08-02T16:52:32;5.30;;;3.05;;
67278;SDS011;54193;53.746;10.058;2022-08-02T16:55:17;8.32;;;3.10;;
67278;SDS011;54193;53.746;10.058;2022-08-02T16:58:03;6.47;;;3.60;;
67278;SDS011;54193;53.746;10.058;2022-08-02T17:00:49;8.23;;;7.47;;
67278;SDS011;54193;53.746;10.058;2022-08-02T17:03:35;5.68;;;3.22;;
67278;SDS011;54193;53.746;10.058;2022-08-02T17:06:20;4.82;;;3.00;;
67278;SDS011;54193;53.746;10.058;2022-08-02T17:09:06;4.05;;;3.03;;
67278;SDS011;54193;53.746;10.058;2022-08-02T17:11:51;6.45;;;3.20;;